Time;durP1;ratioP1;P1;durP2;ratioP2;P2;SDS_P1;SDS_P2;PMS_P1;PMS_P2;Temp;Humidity;BMP_temperature;BMP_pressure;BME280_temperature;BME280_humidity;BME280_pressure;Samples;Min_cycle;Max_cycle;Signal;HPM_P1;HPM_P2
2023/05/23 00:00:32;;;;;;;5.80;4.10;;;;;;;10.23;73.98;100485.73;102780;276;104641;-57
2023/05/23 00:03:30;;;;;;;7.60;4.70;;;;;;;10.18;74.32;100490.95;102760;276;114355;-56
2023/05/23 00:06:09;;;;;;;6.80;4.20;;;;;;;10.16;74.46;100489.68;102748;276;96563;-57
2023/05/23 00:08:48;;;;;;;9.90;4.70;;;;;;;10.13;74.41;100491.39;102773;276;97916;-56
2023/05/23 00:11:36;;;;;;;7.10;4.30;;;;;;;10.11;74.36;100490.89;102739;276;119500;-54
2023/05/23 00:14:16;;;;;;;6.70;4.70;;;;;;;10.07;74.52;100490.65;102754;276;106043;-55
2023/05/23 00:17:01;;;;;;;7.00;4.40;;;;;;;10.06;74.72;100488.91;102772;276;113712;-56
2023/05/23 00:19:48;;;;;;;6.30;4.50;;;;;;;10.06;74.72;100484.83;102753;276;94226;-55
2023/05/23 00:22:28;;;;;;;8.80;4.60;;;;;;;10.02;74.87;100482.48;102749;276;97241;-55
2023/05/23 00:25:05;;;;;;;6.40;4.80;;;;;;;9.95;75.16;100481.12;102742;276;120905;-55
2023/05/23 00:27:42;;;;;;;6.40;4.70;;;;;;;9.90;75.23;100478.67;102801;276;104148;-57
2023/05/23 00:30:17;;;;;;;8.30;4.50;;;;;;;9.87;75.38;100480.25;102744;276;114369;-58
2023/05/23 00:32:55;;;;;;;5.90;4.20;;;;;;;9.84;75.33;100481.39;102807;276;97243;-56
2023/05/23 00:35:36;;;;;;;6.50;4.30;;;;;;;9.81;75.38;100479.77;102815;276;97603;-56
2023/05/23 00:38:18;;;;;;;5.70;4.60;;;;;;;9.81;75.51;100479.02;102763;276;120149;-57
2023/05/23 00:40:54;;;;;;;7.70;4.50;;;;;;;9.81;75.44;100478.35;102765;276;104435;-55
2023/05/23 00:43:36;;;;;;;7.50;4.30;;;;;;;9.79;75.57;100471.90;102760;276;114533;-55
2023/05/23 00:46:13;;;;;;;7.90;4.40;;;;;;;9.79;75.70;100473.55;102810;276;96419;-55
2023/05/23 00:48:49;;;;;;;9.70;4.70;;;;;;;9.78;75.70;100471.99;102769;276;98055;-55
2023/05/23 00:51:30;;;;;;;9.20;4.50;;;;;;;9.76;75.71;100471.90;102794;276;120882;-58
2023/05/23 00:54:07;;;;;;;9.00;4.80;;;;;;;9.72;75.74;100477.25;102759;276;103438;-58
2023/05/23 00:56:42;;;;;;;8.30;5.30;;;;;;;9.64;75.80;100475.67;102741;276;111945;-58
2023/05/23 00:59:29;;;;;;;8.30;4.50;;;;;;;9.57;76.01;100475.98;102707;276;97370;-56
2023/05/23 01:02:13;;;;;;;8.70;4.40;;;;;;;9.55;76.05;100472.92;102754;276;98422;-54
2023/05/23 01:04:53;;;;;;;6.70;4.50;;;;;;;9.52;76.06;100476.61;102785;276;120201;-55
2023/05/23 01:07:34;;;;;;;6.50;4.10;;;;;;;9.48;76.06;100475.88;102797;276;105533;-57
2023/05/23 01:10:13;;;;;;;7.20;5.00;;;;;;;9.43;76.30;100474.21;102750;276;114932;-57
2023/05/23 01:13:04;;;;;;;6.40;4.50;;;;;;;9.41;76.23;100472.48;102796;276;96608;-56
2023/05/23 01:15:51;;;;;;;6.60;5.10;;;;;;;9.40;76.40;100478.71;102767;276;97880;-54
2023/05/23 01:18:31;;;;;;;7.60;4.50;;;;;;;9.38;76.43;100483.49;102787;276;121150;-55
2023/05/23 01:21:12;;;;;;;7.80;4.80;;;;;;;9.37;76.45;100482.83;102844;276;105310;-54
2023/05/23 01:24:36;;;;;;;6.80;4.60;;;;;;;9.36;76.55;100480.06;102757;276;114035;-55
2023/05/23 01:27:24;;;;;;;8.70;4.70;;;;;;;9.31;76.46;100477.43;102807;276;94110;-54
2023/05/23 01:30:03;;;;;;;7.50;4.30;;;;;;;9.24;76.70;100473.23;102849;276;97145;-54
2023/05/23 01:32:45;;;;;;;7.60;4.60;;;;;;;9.17;76.66;100476.39;102557;277;119993;-56
2023/05/23 01:35:26;;;;;;;6.90;4.20;;;;;;;9.16;76.69;100476.36;102787;276;105921;-55
2023/05/23 01:38:01;;;;;;;5.90;4.60;;;;;;;9.17;76.83;100475.56;102808;276;115139;-57
2023/05/23 01:40:36;;;;;;;8.10;4.40;;;;;;;9.17;76.99;100475.01;102770;276;95709;-57
2023/05/23 01:43:20;;;;;;;7.50;4.90;;;;;;;9.14;77.03;100470.02;102768;276;97590;-54
2023/05/23 01:46:09;;;;;;;8.80;4.20;;;;;;;9.12;77.06;100463.39;102805;276;120950;-56
2023/05/23 01:48:50;;;;;;;6.90;4.40;;;;;;;9.09;77.13;100463.17;102764;276;104340;-56
2023/05/23 01:51:30;;;;;;;7.40;4.40;;;;;;;9.09;77.14;100459.10;102780;276;114260;-56
2023/05/23 01:54:08;;;;;;;7.70;4.00;;;;;;;9.06;77.11;100460.29;102782;276;93215;-57
2023/05/23 01:56:44;;;;;;;8.40;4.50;;;;;;;9.05;77.08;100456.19;102871;276;98527;-56
2023/05/23 01:59:25;;;;;;;6.40;4.80;;;;;;;9.02;77.24;100456.45;102832;276;119615;-52
2023/05/23 02:02:11;;;;;;;8.40;4.00;;;;;;;8.99;77.14;100452.14;102888;276;104869;-55
2023/05/23 02:04:56;;;;;;;7.00;4.50;;;;;;;8.93;77.23;100451.58;102831;276;114380;-56
2023/05/23 02:07:38;;;;;;;5.80;4.20;;;;;;;8.89;77.37;100449.38;102857;276;94701;-55
2023/05/23 02:10:20;;;;;;;6.90;4.30;;;;;;;8.84;77.46;100447.02;102864;276;97653;-55
2023/05/23 02:13:03;;;;;;;7.70;4.70;;;;;;;8.81;77.61;100443.48;102829;276;121485;-56
2023/05/23 02:15:44;;;;;;;7.00;4.70;;;;;;;8.80;77.69;100443.06;102651;276;105245;-55
2023/05/23 02:18:28;;;;;;;7.80;4.70;;;;;;;8.80;77.76;100441.22;102758;276;114227;-55
2023/05/23 02:21:08;;;;;;;8.60;4.80;;;;;;;8.80;77.87;100445.42;102804;276;96790;-56
2023/05/23 02:23:51;;;;;;;12.30;5.20;;;;;;;8.78;78.03;100444.12;102714;276;96911;-56
2023/05/23 02:26:30;;;;;;;7.60;4.60;;;;;;;8.78;78.03;100441.47;102742;276;120884;-55
2023/05/23 02:29:12;;;;;;;9.10;4.80;;;;;;;8.79;78.19;100437.24;102762;276;104775;-56
2023/05/23 02:31:52;;;;;;;8.30;5.10;;;;;;;8.81;78.26;100437.14;102763;276;113969;-54
2023/05/23 02:34:34;;;;;;;7.70;5.40;;;;;;;8.84;78.22;100434.90;102759;276;97466;-57
2023/05/23 02:37:14;;;;;;;;;;;;;;;8.81;78.18;100431.59;102753;276;97802;-55
2023/05/23 02:39:57;;;;;;;10.20;4.70;;;;;;;8.80;78.36;100430.11;102734;276;120450;-56
2023/05/23 02:42:35;;;;;;;8.10;5.00;;;;;;;8.80;78.32;100429.70;102756;276;105386;-55
2023/05/23 02:45:14;;;;;;;8.10;5.30;;;;;;;8.81;78.43;100427.48;102706;276;113279;-57
2023/05/23 02:47:58;;;;;;;9.20;5.20;;;;;;;8.81;78.50;100425.86;102773;276;96427;-56
2023/05/23 02:50:33;;;;;;;;;;;;;;;8.83;78.62;100427.64;102779;276;98502;-58
2023/05/23 02:53:12;;;;;;;10.60;5.40;;;;;;;8.85;78.77;100428.21;102841;276;119306;-58
2023/05/23 02:55:53;;;;;;;9.60;5.30;;;;;;;8.89;78.74;100428.84;102787;276;104924;-57
2023/05/23 02:58:37;;;;;;;7.20;5.40;;;;;;;8.95;78.99;100428.73;102773;276;113436;-56
2023/05/23 03:01:20;;;;;;;6.80;5.10;;;;;;;9.01;78.91;100426.61;102747;276;94047;-56
2023/05/23 03:04:00;;;;;;;7.70;5.70;;;;;;;9.06;78.90;100424.72;102758;276;98317;-57
2023/05/23 03:06:38;;;;;;;7.30;5.20;;;;;;;9.09;79.05;100424.04;102746;276;120778;-55
2023/05/23 03:09:15;;;;;;;8.90;5.90;;;;;;;9.12;78.95;100425.09;102723;276;105263;-55
2023/05/23 03:11:55;;;;;;;9.10;5.40;;;;;;;9.14;78.96;100421.23;102741;276;114314;-57
2023/05/23 03:14:36;;;;;;;7.70;5.00;;;;;;;9.20;79.20;100421.12;102771;276;97060;-55
2023/05/23 03:17:15;;;;;;;7.80;5.40;;;;;;;9.26;79.21;100421.86;102762;276;97306;-55
2023/05/23 03:19:52;;;;;;;8.10;5.40;;;;;;;9.35;79.26;100424.87;102759;276;121492;-56
2023/05/23 03:22:27;;;;;;;9.00;5.60;;;;;;;9.44;79.27;100424.16;102783;276;106284;-56
2023/05/23 03:25:07;;;;;;;6.50;5.00;;;;;;;9.54;79.28;100420.30;102776;276;113441;-54
2023/05/23 03:27:48;;;;;;;8.80;6.40;;;;;;;9.70;79.28;100419.81;102837;276;94494;-56
2023/05/23 03:30:24;;;;;;;9.70;6.40;;;;;;;9.83;79.27;100419.81;102815;276;97909;-57
2023/05/23 03:33:06;;;;;;;8.60;5.60;;;;;;;9.95;79.39;100418.72;102753;276;121147;-56
2023/05/23 03:35:44;;;;;;;7.20;5.40;;;;;;;10.25;79.04;100414.48;102760;276;105432;-56
2023/05/23 03:38:23;;;;;;;9.90;5.40;;;;;;;11.50;78.32;100407.43;102735;276;113428;-55
2023/05/23 03:40:57;;;;;;;8.90;5.90;;;;;;;13.26;76.93;100410.77;102740;276;96022;-56
2023/05/23 03:43:36;;;;;;;6.20;5.10;;;;;;;14.67;74.94;100404.98;102729;276;96961;-55
2023/05/23 03:46:13;;;;;;;7.30;5.10;;;;;;;15.91;73.36;100400.57;102758;276;119098;-57
2023/05/23 03:48:51;;;;;;;6.70;5.20;;;;;;;16.97;71.72;100402.13;102697;277;105334;-56
2023/05/23 03:51:30;;;;;;;6.40;4.90;;;;;;;17.93;69.95;100401.52;102712;277;113346;-56
2023/05/23 03:54:09;;;;;;;6.20;4.60;;;;;;;18.80;68.57;100398.55;102732;277;94456;-56
2023/05/23 03:56:44;;;;;;;9.50;5.10;;;;;;;19.68;67.01;100395.10;102770;277;97272;-56
2023/05/23 03:59:21;;;;;;;6.60;4.50;;;;;;;20.40;65.29;100385.88;102694;277;120745;-58
2023/05/23 04:02:05;;;;;;;7.00;5.10;;;;;;;21.10;63.79;100391.65;102719;277;104321;-57
2023/05/23 04:04:42;;;;;;;6.50;4.90;;;;;;;21.69;62.07;100392.84;102713;277;114616;-55
2023/05/23 04:07:25;;;;;;;6.60;4.90;;;;;;;22.20;60.56;100390.89;102784;277;97757;-57
2023/05/23 04:10:05;;;;;;;5.10;4.20;;;;;;;22.31;59.09;100385.05;102765;277;96180;-57
2023/05/23 04:12:44;;;;;;;6.10;4.90;;;;;;;21.69;58.61;100385.56;102748;277;118329;-55
2023/05/23 04:15:22;;;;;;;6.60;4.40;;;;;;;20.32;58.71;100384.65;102738;277;105767;-56
2023/05/23 04:18:00;;;;;;;7.50;5.00;;;;;;;19.17;58.95;100387.66;102705;277;113638;-55
2023/05/23 04:20:37;;;;;;;7.30;5.00;;;;;;;18.45;59.39;100383.08;102682;277;93967;-56
2023/05/23 04:23:17;;;;;;;10.90;5.70;;;;;;;17.73;59.89;100387.83;102771;277;97622;-54
2023/05/23 04:25:51;;;;;;;5.80;5.20;;;;;;;17.27;60.79;100386.91;102750;277;118907;-55
2023/05/23 04:28:34;;;;;;;6.80;5.10;;;;;;;17.12;61.32;100390.45;102738;277;105220;-55
2023/05/23 04:31:15;;;;;;;;;;;;;;;16.84;62.14;100392.42;102710;277;113103;-56
2023/05/23 04:33:57;;;;;;;9.70;5.50;;;;;;;16.76;62.84;100392.89;102715;277;93392;-57
2023/05/23 04:36:37;;;;;;;7.00;5.40;;;;;;;16.72;63.07;100387.19;102708;277;97245;-57
2023/05/23 04:39:15;;;;;;;8.20;5.00;;;;;;;16.62;63.37;100384.41;102747;277;120479;-57
2023/05/23 04:41:53;;;;;;;7.60;4.60;;;;;;;16.60;64.00;100387.63;102754;277;106224;-58
2023/05/23 04:44:36;;;;;;;8.30;5.10;;;;;;;16.67;64.03;100385.31;102719;277;113784;-58
2023/05/23 04:47:17;;;;;;;6.70;5.20;;;;;;;16.81;64.29;100389.91;102765;276;93310;-57
2023/05/23 04:49:54;;;;;;;7.70;5.40;;;;;;;18.25;63.65;100380.98;102828;276;96385;-56
2023/05/23 04:52:28;;;;;;;6.20;4.60;;;;;;;20.57;61.84;100373.43;102777;276;119098;-57
2023/05/23 04:55:03;;;;;;;5.30;4.30;;;;;;;22.65;59.94;100369.19;102831;276;105642;-57
2023/05/23 04:57:39;;;;;;;4.90;4.40;;;;;;;24.40;57.98;100365.31;102813;276;113294;-56
2023/05/23 05:00:19;;;;;;;6.70;4.40;;;;;;;25.85;55.88;100364.33;102814;276;94086;-56
2023/05/23 05:02:56;;;;;;;6.60;4.20;;;;;;;27.00;53.38;100359.80;102840;276;97691;-59
2023/05/23 05:05:36;;;;;;;5.40;4.40;;;;;;;28.06;50.81;100361.11;102833;276;120747;-58
2023/05/23 05:08:14;;;;;;;6.40;4.20;;;;;;;28.95;48.79;100357.07;102533;278;103408;-58
2023/05/23 05:10:50;;;;;;;6.00;3.80;;;;;;;29.55;45.85;100349.11;102828;276;114384;-57
2023/05/23 05:13:27;;;;;;;6.60;3.70;;;;;;;30.16;43.98;100351.39;102818;276;94179;-58
2023/05/23 05:16:03;;;;;;;5.90;3.60;;;;;;;30.82;42.58;100345.33;102793;276;97290;-57
2023/05/23 05:18:39;;;;;;;4.70;3.40;;;;;;;31.44;41.35;100341.29;102795;276;121068;-56
2023/05/23 05:21:24;;;;;;;5.10;4.30;;;;;;;32.03;39.58;100338.86;102810;276;103308;-59
2023/05/23 05:24:02;;;;;;;4.70;3.50;;;;;;;32.38;38.26;100338.70;102791;276;114881;-59
2023/05/23 05:26:42;;;;;;;5.50;3.40;;;;;;;32.88;36.61;100338.77;102798;276;94417;-59
2023/05/23 05:29:27;;;;;;;5.70;3.70;;;;;;;33.56;35.54;100335.08;102815;276;97496;-59
2023/05/23 05:32:09;;;;;;;6.70;3.40;;;;;;;33.96;34.10;100336.56;102814;276;119758;-57
2023/05/23 05:34:47;;;;;;;5.00;3.60;;;;;;;34.32;33.06;100336.50;102825;276;103928;-58
2023/05/23 05:37:25;;;;;;;5.80;3.60;;;;;;;34.44;32.13;100335.64;102844;276;113476;-59
2023/05/23 05:40:05;;;;;;;6.30;3.40;;;;;;;34.80;30.91;100333.63;102848;276;94950;-60
2023/05/23 05:42:41;;;;;;;4.20;3.30;;;;;;;35.17;30.50;100336.27;102892;276;98188;-56
2023/05/23 05:45:16;;;;;;;4.20;3.10;;;;;;;35.41;29.88;100328.71;102807;276;120568;-57
2023/05/23 05:47:57;;;;;;;4.40;3.00;;;;;;;35.69;29.41;100326.81;102333;276;726842;-55
2023/05/23 05:50:36;;;;;;;;;;;;;;;35.63;29.07;100333.37;102540;276;113166;-56
2023/05/23 05:53:12;;;;;;;5.20;3.40;;;;;;;36.01;28.57;100332.29;102834;276;92243;-56
2023/05/23 05:55:58;;;;;;;6.60;3.50;;;;;;;36.35;27.86;100329.65;102630;277;98292;-65
2023/05/23 05:58:40;;;;;;;4.50;3.00;;;;;;;36.27;26.63;100331.87;102806;276;119576;-59
2023/05/23 06:04:38;;;;;;;4.60;2.90;;;;;;;36.69;26.00;100324.02;102957;274;113386;-56
2023/05/23 06:07:18;;;;;;;5.30;3.00;;;;;;;36.47;25.74;100325.14;102902;274;95036;-57
2023/05/23 06:10:01;;;;;;;3.70;3.10;;;;;;;36.47;25.73;100324.67;102903;274;98344;-56
2023/05/23 06:12:41;;;;;;;4.40;3.20;;;;;;;36.89;24.99;100320.13;102920;274;120496;-56
2023/05/23 06:15:27;;;;;;;6.10;3.10;;;;;;;37.31;24.49;100316.83;102934;274;104183;-57
2023/05/23 06:18:10;;;;;;;4.40;3.50;;;;;;;37.38;24.19;100316.44;102875;274;114660;-57
2023/05/23 06:20:52;;;;;;;4.70;3.20;;;;;;;37.54;24.00;100314.20;102928;274;93936;-57
2023/05/23 06:23:38;;;;;;;7.20;3.10;;;;;;;37.61;24.32;100312.83;102906;274;98073;-59
2023/05/23 06:26:17;;;;;;;6.50;3.20;;;;;;;37.79;23.45;100312.27;102868;274;119564;-55
2023/05/23 06:28:57;;;;;;;8.90;3.40;;;;;;;37.82;22.85;100312.02;102990;274;105860;-56
2023/05/23 06:31:35;;;;;;;6.60;3.50;;;;;;;38.24;21.84;100312.56;102859;275;114799;-59
2023/05/23 06:34:18;;;;;;;6.60;2.70;;;;;;;38.32;21.53;100310.63;102830;275;92589;-59
2023/05/23 06:36:57;;;;;;;3.70;2.80;;;;;;;38.33;21.63;100309.34;102907;274;95234;-58
2023/05/23 06:39:39;;;;;;;4.40;2.90;;;;;;;38.59;20.72;100307.36;102926;274;119504;-58
2023/05/23 06:42:20;;;;;;;6.80;2.80;;;;;;;38.56;20.48;100303.68;102898;274;104922;-57
2023/05/23 06:44:58;;;;;;;3.90;2.80;;;;;;;38.51;20.50;100300.45;102865;274;114182;-56
2023/05/23 06:47:44;;;;;;;6.30;2.90;;;;;;;38.64;20.40;100298.58;102895;274;94883;-58
2023/05/23 06:50:26;;;;;;;2.70;2.30;;;;;;;38.52;20.17;100294.98;102926;263;97820;-59
2023/05/23 06:53:10;;;;;;;4.60;2.70;;;;;;;38.28;20.52;100292.73;102943;274;121304;-57
2023/05/23 06:55:51;;;;;;;6.50;2.80;;;;;;;38.26;19.88;100293.26;102934;274;105006;-56
2023/05/23 06:58:26;;;;;;;;;;;;;;;38.17;19.86;100289.94;102940;274;113807;-62
2023/05/23 07:01:06;;;;;;;9.00;2.80;;;;;;;38.30;19.37;100287.50;102911;274;92316;-58
2023/05/23 07:03:48;;;;;;;4.50;2.60;;;;;;;38.27;19.07;100285.05;102942;274;97841;-56
2023/05/23 07:06:31;;;;;;;3.00;2.70;;;;;;;38.16;19.67;100283.89;102913;274;121151;-56
2023/05/23 07:09:06;;;;;;;4.90;2.50;;;;;;;37.99;19.60;100278.65;102979;274;105793;-58
2023/05/23 07:11:52;;;;;;;5.70;2.60;;;;;;;38.15;19.99;100281.45;103015;274;114276;-59
2023/05/23 07:14:31;;;;;;;3.50;2.70;;;;;;;38.26;20.50;100276.00;103031;274;92229;-59
2023/05/23 07:17:09;;;;;;;4.80;2.60;;;;;;;38.33;19.58;100272.01;102976;274;97263;-60
2023/05/23 07:19:47;;;;;;;4.50;2.50;;;;;;;38.35;19.53;100268.57;103018;274;120054;-60
2023/05/23 07:22:32;;;;;;;4.40;3.00;;;;;;;38.50;19.83;100269.96;102846;274;104643;-57
2023/05/23 07:25:11;;;;;;;3.20;2.50;;;;;;;38.17;18.50;100268.42;102925;274;113901;-59
2023/05/23 07:27:54;;;;;;;2.90;2.40;;;;;;;37.88;18.79;100262.56;102967;274;92224;-60
2023/05/23 07:30:32;;;;;;;3.90;2.50;;;;;;;37.81;19.33;100258.40;102945;274;97001;-62
2023/05/23 07:33:11;;;;;;;4.00;2.80;;;;;;;37.76;19.21;100259.93;102987;274;120804;-60
2023/05/23 07:35:51;;;;;;;6.00;2.80;;;;;;;37.69;18.78;100254.48;102940;274;105799;-61
2023/05/23 07:38:29;;;;;;;5.10;2.50;;;;;;;37.67;19.24;100252.98;102972;274;113414;-61
2023/05/23 07:41:13;;;;;;;4.00;2.50;;;;;;;37.78;19.43;100247.33;102906;274;94603;-61
2023/05/23 07:43:53;;;;;;;3.50;2.40;;;;;;;37.44;19.45;100248.42;102921;274;97535;-61
2023/05/23 07:46:32;;;;;;;4.50;2.50;;;;;;;37.56;19.40;100246.17;102895;274;118749;-60
2023/05/23 07:49:10;;;;;;;2.80;2.40;;;;;;;37.08;19.06;100245.58;102948;274;104542;-60
2023/05/23 07:51:48;;;;;;;3.60;2.70;;;;;;;36.92;18.55;100247.80;102932;274;114375;-61
2023/05/23 07:54:35;;;;;;;3.30;2.60;;;;;;;36.65;18.98;100240.34;102994;274;94278;-61
2023/05/23 07:57:23;;;;;;;4.50;2.70;;;;;;;36.34;18.71;100240.48;102934;274;97415;-61
2023/05/23 08:00:04;;;;;;;4.00;2.30;;;;;;;36.16;18.98;100236.55;102947;274;119036;-61
2023/05/23 08:02:40;;;;;;;3.40;2.50;;;;;;;36.28;19.57;100238.23;102992;274;104738;-58
2023/05/23 08:05:15;;;;;;;3.00;2.50;;;;;;;36.43;19.21;100240.70;102981;274;114260;-57
2023/05/23 08:07:53;;;;;;;3.40;2.90;;;;;;;36.28;19.02;100237.17;102927;274;95296;-59
2023/05/23 08:10:31;;;;;;;2.80;2.20;;;;;;;36.07;19.06;100241.64;102947;274;96155;-60
2023/05/23 08:13:11;;;;;;;3.90;2.40;;;;;;;35.85;19.37;100237.05;102935;274;119522;-58
2023/05/23 08:16:00;;;;;;;4.20;2.50;;;;;;;36.03;19.88;100233.08;102909;274;105441;-57
2023/05/23 08:18:43;;;;;;;4.10;2.60;;;;;;;36.07;19.79;100234.02;102886;274;114374;-56
2023/05/23 08:21:20;;;;;;;3.10;2.50;;;;;;;35.85;19.51;100233.84;102815;275;95561;-56
2023/05/23 08:24:00;;;;;;;3.90;2.50;;;;;;;35.85;19.67;100230.92;102905;274;98252;-56
2023/05/23 08:26:38;;;;;;;3.10;2.60;;;;;;;35.69;19.65;100224.16;102876;274;119864;-60
2023/05/23 08:29:17;;;;;;;4.70;2.40;;;;;;;35.91;20.67;100222.42;102783;274;106860;-60
2023/05/23 08:32:02;;;;;;;3.80;2.50;;;;;;;36.49;20.19;100226.08;102837;276;113506;-56
2023/05/23 08:34:42;;;;;;;4.20;2.60;;;;;;;36.63;20.13;100219.95;102849;274;94201;-58
2023/05/23 08:37:21;;;;;;;4.00;2.70;;;;;;;36.58;20.08;100221.05;102991;274;97081;-58
2023/05/23 08:40:04;;;;;;;3.20;2.30;;;;;;;36.43;20.19;100213.99;102929;274;121857;-57
2023/05/23 08:42:42;;;;;;;4.70;3.10;;;;;;;36.69;19.96;100213.95;102958;274;105547;-58
2023/05/23 08:45:18;;;;;;;3.20;2.40;;;;;;;36.87;19.96;100211.55;102897;274;115115;-56
2023/05/23 08:47:55;;;;;;;4.10;2.70;;;;;;;36.84;19.62;100207.52;102805;275;94740;-56
2023/05/23 08:50:35;;;;;;;3.10;2.60;;;;;;;36.33;19.06;100212.61;102945;274;97827;-56
2023/05/23 08:53:19;;;;;;;4.40;2.50;;;;;;;35.85;18.98;100213.23;102878;274;121040;-57
2023/05/23 08:56:02;;;;;;;3.80;2.40;;;;;;;35.60;19.82;100202.48;102895;274;106756;-65
2023/05/23 08:58:42;;;;;;;3.50;2.70;;;;;;;35.45;19.61;100203.02;102888;274;113604;-63
2023/05/23 09:01:23;;;;;;;3.50;2.10;;;;;;;34.71;18.52;100210.38;102935;274;93856;-64
2023/05/23 09:04:12;;;;;;;5.40;2.40;;;;;;;33.15;19.27;100204.55;102879;274;98176;-65
2023/05/23 09:06:54;;;;;;;5.60;2.80;;;;;;;31.96;20.45;100198.21;102933;274;120707;-64
2023/05/23 09:09:40;;;;;;;5.50;2.50;;;;;;;31.50;21.56;100199.45;102905;274;104942;-65
2023/05/23 09:12:21;;;;;;;4.50;2.40;;;;;;;31.59;21.63;100199.29;102917;274;114228;-63
2023/05/23 09:15:08;;;;;;;3.60;2.20;;;;;;;31.53;22.12;100204.11;102867;274;93925;-63
2023/05/23 09:17:45;;;;;;;3.60;2.70;;;;;;;31.42;22.60;100204.12;102903;274;98117;-64
2023/05/23 09:20:25;;;;;;;4.80;2.70;;;;;;;31.27;22.65;100197.55;102921;274;120973;-63
2023/05/23 09:23:08;;;;;;;4.50;2.90;;;;;;;31.04;22.79;100197.11;102947;274;105631;-59
2023/05/23 09:25:56;;;;;;;2.80;2.30;;;;;;;30.26;22.53;100195.20;102916;274;114674;-59
2023/05/23 09:28:37;;;;;;;3.00;2.10;;;;;;;29.47;22.33;100199.75;102901;274;94949;-56
2023/05/23 09:31:29;;;;;;;3.20;2.10;;;;;;;28.81;22.93;100198.14;102940;274;96889;-57
2023/05/23 09:34:12;;;;;;;3.20;2.50;;;;;;;28.53;23.78;100199.02;102942;274;120534;-58
2023/05/23 09:36:49;;;;;;;3.20;2.00;;;;;;;28.28;23.67;100197.11;102894;271;104900;-58
2023/05/23 09:39:26;;;;;;;5.20;2.20;;;;;;;28.41;23.94;100194.70;102869;274;113597;-60
2023/05/23 09:42:07;;;;;;;4.50;2.20;;;;;;;28.62;23.75;100192.96;102907;274;94457;-59
2023/05/23 09:44:51;;;;;;;3.80;2.30;;;;;;;28.60;23.88;100196.50;102896;274;98703;-59
2023/05/23 09:47:28;;;;;;;4.10;2.40;;;;;;;28.60;24.51;100195.95;102883;274;120607;-59
2023/05/23 09:50:04;;;;;;;3.50;2.50;;;;;;;28.35;24.02;100181.56;102921;274;105356;-57
2023/05/23 09:52:39;;;;;;;3.70;2.30;;;;;;;28.10;24.10;100177.18;102921;274;114905;-57
2023/05/23 09:55:14;;;;;;;3.70;2.20;;;;;;;28.01;24.18;100184.06;102900;274;93228;-57
2023/05/23 09:58:01;;;;;;;3.50;2.00;;;;;;;27.88;24.10;100184.81;102915;274;97031;-55
2023/05/23 10:00:42;;;;;;;6.20;2.60;;;;;;;27.55;24.24;100184.21;102948;274;121182;-57
2023/05/23 10:03:27;;;;;;;3.90;2.00;;;;;;;27.52;24.59;100187.42;102977;274;105295;-58
2023/05/23 10:06:14;;;;;;;4.00;2.20;;;;;;;27.32;24.97;100187.55;102938;274;114027;-57
2023/05/23 10:08:58;;;;;;;5.00;2.40;;;;;;;27.44;25.25;100180.02;102898;274;94367;-60
2023/05/23 10:12:37;;;;;;;6.10;2.40;;;;;;;27.32;24.99;100184.77;102972;274;96493;-58
2023/05/23 10:15:16;;;;;;;2.70;2.40;;;;;;;27.04;25.03;100189.09;102925;274;118996;-57
2023/05/23 10:18:07;;;;;;;4.60;2.60;;;;;;;27.21;25.10;100184.91;102935;274;106324;-57
2023/05/23 10:20:49;;;;;;;3.50;2.10;;;;;;;27.26;25.08;100177.70;102931;274;115320;-56
2023/05/23 10:23:36;;;;;;;3.40;2.40;;;;;;;27.28;25.18;100176.30;102922;274;93194;-58
2023/05/23 10:26:13;;;;;;;4.20;2.90;;;;;;;27.24;25.32;100173.20;102935;274;98688;-56
2023/05/23 10:28:52;;;;;;;4.30;2.30;;;;;;;27.02;25.80;100172.27;102957;274;121127;-58
2023/05/23 10:31:30;;;;;;;4.60;2.40;;;;;;;26.89;25.58;100167.70;102968;274;105919;-56
2023/05/23 10:34:24;;;;;;;5.20;2.70;;;;;;;27.02;26.01;100165.98;102977;274;113704;-54
2023/05/23 10:37:06;;;;;;;7.10;2.50;;;;;;;27.19;26.52;100165.08;102912;274;94217;-56
2023/05/23 10:40:04;;;;;;;3.20;2.40;;;;;;;27.21;26.62;100167.00;102969;274;97382;-56
2023/05/23 10:42:53;;;;;;;3.90;2.40;;;;;;;27.07;25.95;100168.14;102950;274;119370;-57
2023/05/23 10:45:34;;;;;;;4.00;2.10;;;;;;;27.10;25.61;100165.63;102931;274;105729;-58
2023/05/23 10:48:26;;;;;;;3.70;2.50;;;;;;;27.05;25.79;100167.39;102909;274;113187;-58
2023/05/23 10:51:08;;;;;;;3.20;2.40;;;;;;;27.41;25.96;100168.64;102924;274;94447;-57
2023/05/23 10:53:55;;;;;;;5.80;2.70;;;;;;;27.48;25.70;100169.95;102924;274;97941;-58
2023/05/23 10:56:35;;;;;;;2.90;2.30;;;;;;;27.74;25.58;100164.46;102884;274;120936;-58
2023/05/23 10:59:22;;;;;;;5.10;2.30;;;;;;;27.83;25.16;100153.39;102913;274;106107;-57
2023/05/23 11:02:10;;;;;;;3.50;2.10;;;;;;;27.53;25.22;100157.99;102965;274;114720;-58
2023/05/23 11:05:27;;;;;;;3.50;2.40;;;;;;;27.56;25.52;100159.59;102931;274;94011;-57
2023/05/23 11:08:22;;;;;;;3.80;2.90;;;;;;;27.66;25.28;100160.23;102956;274;98040;-59
2023/05/23 11:11:06;;;;;;;3.80;2.20;;;;;;;27.77;25.34;100152.61;102933;274;119986;-60
2023/05/23 11:14:01;;;;;;;3.40;2.20;;;;;;;27.87;25.20;100149.92;102919;274;105713;-58
2023/05/23 11:16:47;;;;;;;3.20;2.10;;;;;;;28.11;25.70;100151.15;102906;274;114615;-57
2023/05/23 11:19:29;;;;;;;3.60;2.20;;;;;;;27.68;25.32;100155.96;102869;274;95251;-56
2023/05/23 11:22:12;;;;;;;3.40;2.20;;;;;;;27.09;25.51;100160.09;102917;274;98101;-59
2023/05/23 11:24:55;;;;;;;3.70;2.50;;;;;;;26.78;26.01;100153.41;102870;274;120837;-59
2023/05/23 11:27:36;;;;;;;3.50;2.50;;;;;;;26.85;26.40;100149.86;102944;274;106017;-58
2023/05/23 11:30:20;;;;;;;4.30;2.50;;;;;;;27.06;26.43;100141.77;102902;274;114018;-58
2023/05/23 11:32:57;;;;;;;5.20;2.30;;;;;;;27.29;26.35;100142.82;102893;274;92765;-59
2023/05/23 11:35:38;;;;;;;3.00;2.60;;;;;;;27.24;26.18;100136.36;102955;274;98203;-60
2023/05/23 11:38:18;;;;;;;4.60;2.30;;;;;;;27.20;26.45;100139.88;102999;274;121589;-55
2023/05/23 11:40:56;;;;;;;4.90;2.20;;;;;;;27.32;26.32;100133.05;102963;274;105792;-57
2023/05/23 11:43:36;;;;;;;3.90;2.80;;;;;;;27.31;26.28;100136.69;102947;274;114600;-55
2023/05/23 11:46:16;;;;;;;5.10;2.20;;;;;;;27.23;26.27;100134.67;102854;274;93788;-58
2023/05/23 11:48:55;;;;;;;3.90;2.40;;;;;;;27.11;26.73;100122.41;102912;274;97507;-58
2023/05/23 11:51:31;;;;;;;3.70;2.70;;;;;;;27.22;26.82;100124.82;102833;274;120016;-57
2023/05/23 11:54:06;;;;;;;4.70;2.40;;;;;;;27.19;26.87;100125.14;102889;274;104385;-56
2023/05/23 11:56:53;;;;;;;3.00;2.20;;;;;;;27.19;26.94;100121.74;102856;274;114901;-59
2023/05/23 11:59:34;;;;;;;2.70;2.30;;;;;;;27.11;26.92;100116.60;102917;274;95188;-59
2023/05/23 12:02:15;;;;;;;4.80;2.60;;;;;;;27.09;27.05;100118.18;102954;274;97942;-58
2023/05/23 12:04:55;;;;;;;5.90;3.40;;;;;;;27.19;26.67;100116.59;102908;274;120754;-58
2023/05/23 12:07:36;;;;;;;5.00;2.40;;;;;;;27.10;26.71;100110.55;102980;274;106370;-58
2023/05/23 12:10:13;;;;;;;4.70;2.30;;;;;;;27.05;26.76;100110.32;102939;274;113112;-61
2023/05/23 12:12:52;;;;;;;3.60;2.50;;;;;;;27.03;26.82;100110.46;102903;274;93860;-60
2023/05/23 12:15:36;;;;;;;3.70;2.60;;;;;;;26.84;26.63;100113.45;102926;274;98296;-60
2023/05/23 12:18:13;;;;;;;5.70;2.90;;;;;;;26.76;26.86;100112.09;102931;274;119622;-57
2023/05/23 12:20:52;;;;;;;4.10;2.50;;;;;;;26.69;26.61;100116.17;102917;274;105177;-59
2023/05/23 12:23:36;;;;;;;2.40;2.20;;;;;;;26.60;26.52;100114.66;102909;274;114554;-58
2023/05/23 12:26:19;;;;;;;3.20;2.50;;;;;;;26.42;26.66;100114.73;102920;274;94476;-60
2023/05/23 12:29:00;;;;;;;3.50;2.30;;;;;;;26.39;26.61;100113.44;102944;274;97402;-60
2023/05/23 12:31:42;;;;;;;5.30;4.20;;;;;;;26.42;26.70;100115.41;102867;274;120305;-56